Time;durP1;ratioP1;P1;durP2;ratioP2;P2;SDS_P1;SDS_P2;PMS_P1;PMS_P2;Temp;Humidity;BMP_temperature;BMP_pressure;BME280_temperature;BME280_humidity;BME280_pressure;Samples;Min_cycle;Max_cycle;Signal;HPM_P1;HPM_P2
2021/12/17 00:01:00;;;;;;;7.53;6.65;;;;;;;11.00;54.67;99733.77;1758314;80;21102;-68
2021/12/17 00:03:33;;;;;;;7.62;6.85;;;;;;;11.00;54.68;99728.97;1759289;78;21102;-69
2021/12/17 00:06:11;;;;;;;8.85;6.78;;;;;;;11.00;54.70;99735.11;1757932;80;21030;-68
2021/12/17 00:08:22;;;;;;;8.73;6.67;;;;;;;11.00;54.70;99737.77;1754445;79;21570;-68
2021/12/17 00:10:49;;;;;;;8.78;6.83;;;;;;;10.92;54.69;99726.34;1773140;78;21030;-69
2021/12/17 00:13:16;;;;;;;7.92;6.67;;;;;;;11.00;54.68;99734.28;1760494;79;21526;-68
2021/12/17 00:15:44;;;;;;;8.23;6.42;;;;;;;11.01;54.69;99743.42;1770544;78;21061;-68
2021/12/17 00:18:17;;;;;;;7.75;6.95;;;;;;;11.01;54.70;99743.93;1771952;78;21045;-68
2021/12/17 00:50:39;;;;;;;6.97;6.15;;;;;;;10.96;54.82;99744.93;1767740;79;21456;-68
2021/12/17 00:52:50;;;;;;;6.30;5.70;;;;;;;10.96;54.82;99743.61;1772415;80;21980;-69
2021/12/17 00:55:16;;;;;;;6.55;5.55;;;;;;;10.94;54.83;99736.30;1777562;80;21089;-69
2021/12/17 00:57:45;;;;;;;7.05;6.17;;;;;;;10.95;54.83;99743.26;1774245;80;21553;-68
2021/12/17 01:00:17;;;;;;;7.10;6.22;;;;;;;10.96;54.83;99744.42;1772699;80;21012;-69
2021/12/17 01:02:44;;;;;;;6.62;5.50;;;;;;;10.96;54.82;99739.62;1768421;78;21011;-69
2021/12/17 01:05:20;;;;;;;6.65;5.53;;;;;;;10.97;54.83;99734.13;1776035;79;22052;-68
2021/12/17 01:07:48;;;;;;;6.12;5.50;;;;;;;10.96;54.82;99728.98;1772310;78;21616;-68
2021/12/17 01:10:35;;;;;;;7.20;5.67;;;;;;;10.96;54.81;99725.81;1766080;78;22256;-69
2021/12/17 01:13:13;;;;;;;6.87;5.25;;;;;;;10.98;54.81;99723.81;1760370;79;21023;-70
2021/12/17 01:15:42;;;;;;;6.35;5.42;;;;;;;10.96;54.82;99716.52;1787595;79;21154;-68
2021/12/17 01:18:20;;;;;;;6.10;5.33;;;;;;;10.97;54.81;99719.99;1776444;79;21157;-68
2021/12/17 01:24:03;;;;;;;6.00;5.40;;;;;;;10.97;54.80;99718.19;1779587;80;21021;-66
2021/12/17 01:42:33;;;;;;;5.58;4.97;;;;;;;10.94;54.87;99693.77;1774551;79;21040;-69
2021/12/17 01:44:59;;;;;;;5.70;4.87;;;;;;;10.93;54.90;99702.26;1760364;80;21213;-68
2021/12/17 01:47:26;;;;;;;5.47;4.87;;;;;;;10.94;54.88;99696.43;1755444;81;21656;-68
2021/12/17 02:00:56;;;;;;;4.65;4.17;;;;;;;10.95;54.88;99686.97;1793086;80;20997;-69
2021/12/17 02:03:24;;;;;;;5.33;4.83;;;;;;;10.95;54.86;99683.45;1794745;78;21017;-68
2021/12/17 02:05:51;;;;;;;5.25;4.37;;;;;;;10.95;54.90;99686.97;1790378;80;21040;-68
2021/12/17 02:08:18;;;;;;;4.72;4.03;;;;;;;10.94;54.88;99687.95;1763391;80;21053;-68
2021/12/17 02:32:39;;;;;;;4.10;3.47;;;;;;;10.93;54.92;99676.16;1813004;78;21041;-68
2021/12/17 02:37:47;;;;;;;4.03;3.50;;;;;;;10.93;54.93;99679.66;1773667;78;21299;-68
2021/12/17 02:46:25;;;;;;;4.65;3.30;;;;;;;10.93;54.94;99672.17;1820156;77;21029;-68
2021/12/17 02:48:52;;;;;;;3.90;3.37;;;;;;;10.92;54.96;99676.66;1823725;77;21157;-67
2021/12/17 02:51:22;;;;;;;4.20;3.75;;;;;;;10.91;54.96;99673.66;1822802;77;21896;-69
2021/12/17 02:53:47;;;;;;;3.20;2.90;;;;;;;10.92;54.95;99677.99;1801118;78;21537;-68
2021/12/17 02:56:14;;;;;;;4.15;3.50;;;;;;;10.92;54.94;99674.00;1805841;78;21640;-69
2021/12/17 02:58:40;;;;;;;3.50;3.17;;;;;;;10.93;54.95;99674.83;1808372;77;21028;-69
2021/12/17 03:01:10;;;;;;;3.42;3.08;;;;;;;10.93;54.93;99678.81;1813209;78;21061;-68
2021/12/17 03:03:38;;;;;;;4.97;3.40;;;;;;;10.93;54.92;99672.17;1817165;78;21073;-67
2021/12/17 03:06:04;;;;;;;3.35;2.85;;;;;;;10.94;54.93;99669.34;1815066;77;21017;-68
2021/12/17 03:08:32;;;;;;;3.85;3.55;;;;;;;10.95;54.92;99674.16;1804827;78;21033;-68
2021/12/17 03:10:59;;;;;;;3.72;3.42;;;;;;;10.95;54.90;99670.16;1818925;77;21019;-68
2021/12/17 03:13:28;;;;;;;3.70;2.95;;;;;;;10.95;54.91;99662.19;1813270;78;21044;-68
2021/12/17 03:16:00;;;;;;;3.87;2.98;;;;;;;10.96;54.88;99663.86;1816341;77;21143;-68
2021/12/17 03:23:53;;;;;;;3.35;2.90;;;;;;;10.95;54.86;99666.18;1825133;78;21044;-69
2021/12/17 03:26:25;;;;;;;3.90;3.22;;;;;;;10.95;54.88;99659.05;1814216;78;21025;-69
2021/12/17 03:28:55;;;;;;;3.42;3.02;;;;;;;10.95;54.89;99664.84;1830614;77;21098;-68
2021/12/17 03:31:23;;;;;;;3.27;2.80;;;;;;;10.95;54.85;99662.19;1819099;77;21022;-69
2021/12/17 03:33:52;;;;;;;4.53;3.40;;;;;;;10.96;54.86;99666.52;1819271;77;21493;-68
2021/12/17 03:36:20;;;;;;;3.35;2.90;;;;;;;10.95;54.88;99656.40;1821442;77;21037;-68
2021/12/17 03:38:48;;;;;;;3.60;3.08;;;;;;;10.95;54.86;99656.88;1822430;78;21056;-68
2021/12/17 03:41:22;;;;;;;3.98;3.00;;;;;;;10.95;54.86;99660.38;1801508;78;21112;-68
2021/12/17 03:43:57;;;;;;;3.40;2.90;;;;;;;10.95;54.85;99651.08;1831341;77;20977;-68
2021/12/17 03:46:26;;;;;;;3.17;2.75;;;;;;;10.95;54.85;99646.24;1821946;77;20990;-68
2021/12/17 03:48:53;;;;;;;3.02;2.62;;;;;;;10.95;54.85;99643.59;1830898;78;20982;-67
2021/12/17 03:51:20;;;;;;;3.45;2.90;;;;;;;10.96;54.86;99643.93;1820010;78;22008;-69
2021/12/17 03:53:52;;;;;;;4.08;3.27;;;;;;;10.96;54.86;99647.91;1809488;78;21537;-68
2021/12/17 03:56:19;;;;;;;3.35;2.98;;;;;;;10.95;54.84;99648.42;1819651;77;21076;-69
2021/12/17 03:58:48;;;;;;;3.17;2.80;;;;;;;10.96;54.85;99644.75;1827181;78;21017;-69
2021/12/17 04:01:15;;;;;;;3.02;2.70;;;;;;;10.96;54.83;99653.23;1826496;77;20997;-69
2021/12/17 04:03:42;;;;;;;3.27;2.80;;;;;;;10.97;54.84;99650.88;1828970;77;21561;-68
2021/12/17 04:06:11;;;;;;;3.22;2.85;;;;;;;10.97;54.81;99649.55;1825608;78;22339;-69
2021/12/17 04:08:49;;;;;;;3.27;2.70;;;;;;;10.97;54.80;99646.89;1812794;78;20990;-68
2021/12/17 04:11:31;;;;;;;3.55;2.80;;;;;;;10.97;54.81;99638.92;1828400;77;20978;-68
2021/12/17 04:14:00;;;;;;;2.92;2.60;;;;;;;10.97;54.81;99642.91;1804538;78;20985;-68
2021/12/17 04:16:31;;;;;;;3.72;2.85;;;;;;;10.97;54.81;99648.23;1822334;77;21084;-68
2021/12/17 04:18:58;;;;;;;3.10;2.80;;;;;;;10.96;54.83;99639.44;1779651;80;22956;-69
2021/12/17 04:21:25;;;;;;;3.00;2.55;;;;;;;10.97;54.81;99641.10;1759379;80;21030;-68
2021/12/17 04:26:48;;;;;;;3.05;2.52;;;;;;;11.01;54.81;99638.42;1847776;76;27987;-69
2021/12/17 04:29:17;;;;;;;2.72;2.47;;;;;;;10.95;54.84;99635.14;1825389;78;21022;-69
2021/12/17 04:31:52;;;;;;;3.35;2.60;;;;;;;10.96;54.82;99636.77;1807483;78;21141;-69
2021/12/17 04:34:17;;;;;;;3.08;2.58;;;;;;;10.96;54.82;99637.28;1825433;77;21024;-70
2021/12/17 04:36:44;;;;;;;3.33;2.70;;;;;;;10.97;54.80;99636.27;1822130;78;21022;-68
2021/12/17 04:39:16;;;;;;;3.17;2.40;;;;;;;10.97;54.79;99634.45;1817089;77;20998;-69
2021/12/17 04:41:51;;;;;;;2.62;2.42;;;;;;;10.98;54.79;99633.44;1805046;78;20982;-69
2021/12/17 04:44:21;;;;;;;2.75;2.35;;;;;;;10.97;54.80;99625.63;1817911;77;21814;-69
2021/12/17 04:47:00;;;;;;;2.67;2.42;;;;;;;10.98;54.80;99632.63;1813040;78;22292;-68
2021/12/17 04:57:36;;;;;;;3.45;2.47;;;;;;;10.96;54.82;99635.45;1803549;78;21140;-70
2021/12/17 05:00:18;;;;;;;3.47;2.72;;;;;;;10.96;54.82;99627.98;1815339;78;21509;-69
2021/12/17 05:02:49;;;;;;;3.00;2.17;;;;;;;10.95;54.81;99629.81;1816816;77;21142;-68
2021/12/17 05:05:17;;;;;;;3.50;2.62;;;;;;;10.95;54.83;99618.34;1825175;78;21314;-68
2021/12/17 05:07:52;;;;;;;4.00;2.30;;;;;;;10.95;54.82;99627.64;1822082;77;21037;-69
2021/12/17 05:18:34;;;;;;;3.00;2.08;;;;;;;10.94;54.84;99624.67;1752627;80;21091;-69
2021/12/17 05:21:05;;;;;;;2.85;2.40;;;;;;;10.93;54.84;99622.52;1756955;80;20990;-68
2021/12/17 05:23:42;;;;;;;2.80;2.20;;;;;;;10.94;54.85;99618.02;1753984;78;21149;-68
2021/12/17 05:26:13;;;;;;;2.20;1.98;;;;;;;10.93;54.85;99621.67;1756194;80;21596;-70
2021/12/17 05:28:41;;;;;;;3.20;2.45;;;;;;;10.92;54.86;99618.19;1759686;80;21024;-68
2021/12/17 05:31:09;;;;;;;2.92;2.30;;;;;;;10.93;54.86;99615.02;1767575;80;21021;-68
2021/12/17 05:33:38;;;;;;;3.87;2.90;;;;;;;10.93;54.85;99624.33;1762720;80;21484;-68
2021/12/17 05:36:05;;;;;;;2.90;2.15;;;;;;;10.93;54.84;99619.86;1781796;80;21175;-68
2021/12/17 05:38:31;;;;;;;3.22;2.30;;;;;;;10.94;54.84;99616.70;1764488;80;21046;-69
2021/12/17 05:40:58;;;;;;;3.50;2.45;;;;;;;10.94;54.83;99619.35;1752990;80;21096;-68
2021/12/17 05:43:26;;;;;;;3.33;2.00;;;;;;;10.94;54.82;99608.72;1745052;80;21033;-69
2021/12/17 05:48:26;;;;;;;2.92;2.08;;;;;;;10.95;54.81;99611.69;1774729;80;21141;-69
2021/12/17 05:50:57;;;;;;;2.98;2.40;;;;;;;10.95;54.81;99605.05;1775626;80;21081;-68
2021/12/17 05:53:25;;;;;;;3.98;2.50;;;;;;;10.94;54.78;99605.55;1780899;80;21538;-68
2021/12/17 05:55:52;;;;;;;2.83;2.20;;;;;;;10.93;54.79;99601.73;1739155;80;21014;-68
2021/12/17 05:58:19;;;;;;;3.37;2.37;;;;;;;10.95;54.77;99610.36;1777311;80;21542;-68
2021/12/17 06:00:46;;;;;;;3.37;2.62;;;;;;;10.94;54.79;99614.86;1778829;79;21091;-67
2021/12/17 06:03:20;;;;;;;2.77;2.20;;;;;;;10.94;54.79;99606.06;1762962;80;21022;-69
2021/12/17 06:05:54;;;;;;;2.67;2.33;;;;;;;10.95;54.78;99614.34;1763126;80;21025;-68
2021/12/17 06:08:21;;;;;;;2.95;2.33;;;;;;;10.94;54.78;99617.52;1773124;79;21012;-68
2021/12/17 06:10:50;;;;;;;2.65;2.30;;;;;;;10.94;54.77;99614.86;1767734;80;21032;-72
2021/12/17 06:13:16;;;;;;;2.55;2.10;;;;;;;10.96;54.77;99621.34;1773030;80;21081;-70
2021/12/17 06:15:45;;;;;;;2.20;1.87;;;;;;;10.96;54.76;99617.34;1779729;80;21073;-69
2021/12/17 06:18:12;;;;;;;3.65;2.10;;;;;;;10.96;54.76;99620.00;1767142;80;21028;-69
2021/12/17 06:20:38;;;;;;;2.95;2.58;;;;;;;10.96;54.75;99622.16;1756745;80;21010;-69
2021/12/17 06:23:05;;;;;;;2.62;2.02;;;;;;;10.96;54.75;99622.16;1777094;80;21017;-69
2021/12/17 06:25:32;;;;;;;3.65;2.52;;;;;;;10.96;54.74;99626.14;1777154;80;21964;-69
2021/12/17 06:27:59;;;;;;;3.22;2.08;;;;;;;10.97;54.73;99620.31;1775976;80;21010;-69
2021/12/17 06:30:26;;;;;;;3.55;2.55;;;;;;;10.97;54.74;99617.66;1764853;80;21578;-68
2021/12/17 06:32:53;;;;;;;3.42;2.17;;;;;;;10.97;54.71;99617.66;1776868;80;21026;-70
2021/12/17 06:35:19;;;;;;;3.42;2.50;;;;;;;10.97;54.72;99618.51;1781326;80;21009;-69
2021/12/17 06:37:46;;;;;;;2.55;2.20;;;;;;;10.98;54.72;99619.33;1766123;80;21113;-69
2021/12/17 06:40:14;;;;;;;2.58;2.37;;;;;;;10.98;54.70;99615.34;1771701;80;21002;-69
2021/12/17 06:42:41;;;;;;;2.37;2.10;;;;;;;10.98;54.73;99618.00;1778871;80;21045;-69
2021/12/17 06:45:19;;;;;;;3.12;2.00;;;;;;;10.98;54.69;99614.83;1783515;80;21628;-69
2021/12/17 06:47:39;;;;;;;3.02;2.00;;;;;;;11.01;54.70;99620.33;1772815;80;21033;-71
2021/12/17 06:59:04;;;;;;;2.95;2.20;;;;;;;11.00;54.70;99621.31;1768303;80;21002;-69
2021/12/17 07:10:15;;;;;;;2.37;2.10;;;;;;;10.96;54.76;99613.36;1772789;80;20479;-69
2021/12/17 07:23:15;;;;;;;3.50;2.30;;;;;;;10.89;54.89;99623.84;1758789;80;20991;-67
2021/12/17 07:33:43;;;;;;;2.33;2.10;;;;;;;10.91;54.88;99629.81;1762484;78;21479;-67
2021/12/17 07:36:36;;;;;;;2.98;2.20;;;;;;;10.93;54.90;99623.00;1785979;79;21017;-67
2021/12/17 07:38:57;;;;;;;2.10;1.90;;;;;;;10.93;54.90;99630.97;1784586;80;21025;-67
2021/12/17 07:41:36;;;;;;;3.00;1.85;;;;;;;10.92;54.88;99630.66;1784262;80;21501;-67
2021/12/17 07:44:07;;;;;;;2.95;2.12;;;;;;;10.93;54.88;99635.81;1769265;80;21137;-67
2021/12/17 07:46:35;;;;;;;2.95;2.27;;;;;;;10.93;54.85;99631.82;1756876;80;21056;-68
2021/12/17 07:49:02;;;;;;;2.58;2.05;;;;;;;10.94;54.85;99629.98;1774781;80;21501;-67
2021/12/17 07:51:28;;;;;;;2.70;2.27;;;;;;;10.93;54.84;99629.16;1763225;78;21088;-68
2021/12/17 07:54:01;;;;;;;2.15;1.80;;;;;;;10.96;54.83;99623.99;1781299;80;21033;-68
2021/12/17 07:56:30;;;;;;;2.50;2.00;;;;;;;10.96;54.82;99626.14;1785649;79;21842;-68
2021/12/17 07:58:58;;;;;;;3.00;2.70;;;;;;;10.97;54.82;99629.14;1772786;80;21041;-68
2021/12/17 08:01:25;;;;;;;2.83;2.08;;;;;;;10.97;54.78;99625.63;1756227;80;21013;-68
2021/12/17 08:03:52;;;;;;;2.20;1.98;;;;;;;10.98;54.77;99628.63;1768027;80;21486;-68
2021/12/17 08:06:39;;;;;;;2.80;1.92;;;;;;;11.00;54.78;99623.97;1772565;80;21542;-67
2021/12/17 08:09:13;;;;;;;3.15;2.00;;;;;;;10.99;54.76;99629.80;1759227;80;21212;-67
2021/12/17 08:11:42;;;;;;;2.87;2.22;;;;;;;10.99;54.76;99626.28;1762170;78;21073;-67
2021/12/17 08:14:16;;;;;;;2.22;1.75;;;;;;;11.00;54.75;99632.77;1767246;80;21018;-67
2021/12/17 08:16:49;;;;;;;3.55;2.42;;;;;;;11.00;54.73;99618.66;1782245;80;21073;-68
2021/12/17 08:27:24;;;;;;;2.92;2.00;;;;;;;11.02;54.70;99617.98;1717410;83;21053;-67
2021/12/17 08:29:54;;;;;;;2.95;2.25;;;;;;;11.02;54.72;99623.30;1735817;80;21769;-68
2021/12/17 08:32:12;;;;;;;3.62;2.70;;;;;;;11.02;54.72;99617.47;1761942;80;21501;-67
2021/12/17 08:34:43;;;;;;;4.15;2.27;;;;;;;11.02;54.71;99617.98;1781878;80;21156;-69
2021/12/17 08:37:10;;;;;;;2.80;2.17;;;;;;;11.04;54.70;99623.12;1783348;80;21528;-67
2021/12/17 08:39:38;;;;;;;2.95;2.37;;;;;;;11.05;54.69;99626.09;1782326;80;21010;-69
2021/12/17 08:42:22;;;;;;;2.75;2.02;;;;;;;11.05;54.68;99625.62;1783621;80;21588;-69
2021/12/17 08:44:49;;;;;;;1.95;1.70;;;;;;;11.05;54.67;99622.95;1782345;80;21061;-68
2021/12/17 08:47:36;;;;;;;2.95;1.90;;;;;;;11.06;54.64;99621.12;1770096;80;22203;-68
2021/12/17 08:50:06;;;;;;;2.72;2.02;;;;;;;11.06;54.66;99623.27;1757509;80;21029;-68
2021/12/17 08:52:34;;;;;;;2.27;1.98;;;;;;;11.05;54.63;99621.63;1752756;80;21014;-70
2021/12/17 08:55:01;;;;;;;2.58;2.08;;;;;;;11.06;54.65;99612.64;1765411;80;21017;-68
2021/12/17 08:57:27;;;;;;;2.52;1.92;;;;;;;11.08;54.64;99621.27;1774263;80;21092;-69
2021/12/17 08:59:56;;;;;;;2.47;2.10;;;;;;;11.08;54.61;99615.95;1752610;80;21847;-68
2021/12/17 09:02:26;;;;;;;2.40;2.20;;;;;;;11.09;54.61;99612.30;1753617;80;21017;-68
2021/12/17 09:04:57;;;;;;;2.17;1.98;;;;;;;11.11;54.58;99613.46;1760289;80;21082;-68
2021/12/17 09:07:24;;;;;;;2.40;1.90;;;;;;;11.11;54.57;99612.13;1767774;80;21545;-69
2021/12/17 09:09:52;;;;;;;3.95;2.35;;;;;;;11.12;54.56;99605.80;1766208;80;21093;-68
2021/12/17 09:12:23;;;;;;;2.77;2.20;;;;;;;11.12;54.55;99607.94;1777044;80;21193;-69
2021/12/17 09:14:52;;;;;;;3.35;2.30;;;;;;;11.13;54.55;99612.78;1761495;80;21009;-69
2021/12/17 09:17:37;;;;;;;2.33;1.90;;;;;;;11.13;54.53;99601.64;1752654;80;21045;-68
2021/12/17 09:20:07;;;;;;;2.95;2.20;;;;;;;11.13;54.53;99606.95;1766048;80;21018;-69
2021/12/17 09:22:34;;;;;;;2.45;2.15;;;;;;;11.12;54.54;99597.31;1778416;80;21061;-68
2021/12/17 09:25:04;;;;;;;2.35;2.10;;;;;;;11.13;54.54;99597.65;1775323;79;21201;-68
2021/12/17 09:27:32;;;;;;;2.70;2.12;;;;;;;11.14;54.52;99603.28;1775040;79;21528;-68
2021/12/17 09:30:05;;;;;;;2.67;2.15;;;;;;;11.15;54.54;99599.63;1780464;79;21013;-70
2021/12/17 09:32:33;;;;;;;3.25;2.40;;;;;;;11.15;54.50;99596.97;1758781;80;21091;-67
2021/12/17 09:35:00;;;;;;;2.37;2.17;;;;;;;11.16;54.50;99590.66;1774732;80;20997;-68
2021/12/17 09:37:26;;;;;;;2.75;2.40;;;;;;;11.17;54.46;99588.83;1780396;80;21469;-68
2021/12/17 09:39:53;;;;;;;3.65;2.47;;;;;;;11.17;54.47;99583.00;1788105;80;21016;-68
2021/12/17 09:42:19;;;;;;;2.83;2.52;;;;;;;11.18;54.45;99587.33;1767852;80;21041;-69
2021/12/17 09:44:45;;;;;;;2.72;2.12;;;;;;;11.18;54.45;99581.16;1774548;80;20997;-69
2021/12/17 09:47:12;;;;;;;2.42;2.17;;;;;;;11.20;54.43;99583.14;1743651;81;22108;-71
2021/12/17 09:49:38;;;;;;;3.83;2.42;;;;;;;11.19;54.40;99577.00;1771547;81;21066;-69
2021/12/17 09:52:06;;;;;;;2.35;2.02;;;;;;;11.20;54.39;99585.31;1752603;81;21029;-69
2021/12/17 09:54:33;;;;;;;3.52;2.25;;;;;;;11.21;54.38;99578.98;1753854;80;21053;-69
2021/12/17 09:56:59;;;;;;;2.42;2.08;;;;;;;11.22;54.36;99581.13;1752758;80;20998;-69
2021/12/17 09:59:26;;;;;;;2.92;2.20;;;;;;;11.22;54.35;99577.14;1773669;79;22033;-69
2021/12/17 10:01:53;;;;;;;2.33;1.98;;;;;;;11.24;54.36;99569.81;1758184;80;21107;-68
2021/12/17 10:04:28;;;;;;;2.33;2.00;;;;;;;11.26;54.32;99574.48;1780460;79;20962;-69
2021/12/17 10:07:22;;;;;;;3.37;2.25;;;;;;;11.26;54.30;99569.16;1754359;80;21756;-70
2021/12/17 10:09:53;;;;;;;2.58;2.30;;;;;;;11.28;54.30;99564.97;1754083;80;21092;-69
2021/12/17 10:12:35;;;;;;;3.30;2.25;;;;;;;11.27;54.27;99558.02;1759212;80;21015;-68
2021/12/17 10:15:14;;;;;;;2.83;2.17;;;;;;;11.30;54.25;99561.63;1768323;80;21188;-68
2021/12/17 10:18:00;;;;;;;2.12;1.92;;;;;;;11.30;54.26;99565.14;1755244;80;21580;-68
2021/12/17 10:20:33;;;;;;;2.45;2.17;;;;;;;11.32;54.24;99560.47;1759016;80;21025;-68
2021/12/17 10:23:06;;;;;;;3.58;2.60;;;;;;;11.31;54.25;99554.81;1765901;80;21053;-68
2021/12/17 10:25:40;;;;;;;1.90;1.70;;;;;;;11.35;54.24;99561.94;1774224;80;21017;-69
2021/12/17 10:28:08;;;;;;;2.45;2.10;;;;;;;11.36;54.21;99558.29;1772464;80;22054;-68
2021/12/17 10:30:39;;;;;;;2.33;2.05;;;;;;;11.37;54.20;99555.94;1768741;80;20990;-69
2021/12/17 10:33:08;;;;;;;2.67;2.08;;;;;;;11.38;54.19;99557.61;1792717;79;21088;-69
2021/12/17 10:35:38;;;;;;;2.35;1.90;;;;;;;11.38;54.16;99552.28;1755898;80;21518;-70
2021/12/17 10:38:08;;;;;;;2.55;1.90;;;;;;;11.40;54.16;99561.73;1777775;80;21463;-69
2021/12/17 10:40:55;;;;;;;2.80;2.10;;;;;;;11.42;54.11;99557.57;1762510;80;21847;-71
2021/12/17 10:43:26;;;;;;;;;;;;;;;11.41;54.10;99558.08;1770199;80;21053;-70
2021/12/17 10:46:31;;;;;;;3.08;2.33;;;;;;;11.43;54.09;99553.08;1763611;80;20174;-71
2021/12/17 10:48:36;;;;;;;3.30;2.42;;;;;;;11.40;54.15;99548.95;1746956;80;21041;-70
2021/12/17 10:51:20;;;;;;;2.92;1.92;;;;;;;11.39;54.15;99548.09;1775429;80;21552;-69
2021/12/17 10:53:53;;;;;;;2.37;1.85;;;;;;;11.40;54.12;99544.45;1763838;80;21038;-69
2021/12/17 10:56:22;;;;;;;2.20;1.92;;;;;;;11.40;54.14;99540.45;1770729;80;21613;-70
2021/12/17 10:59:04;;;;;;;3.33;2.30;;;;;;;11.43;54.10;99540.59;1779069;80;21073;-69
2021/12/17 11:01:48;;;;;;;2.50;2.08;;;;;;;11.44;54.10;99553.41;1742142;80;21041;-69
2021/12/17 11:04:25;;;;;;;2.37;2.12;;;;;;;11.44;54.09;99542.77;1773893;79;20986;-69
2021/12/17 11:07:05;;;;;;;2.75;2.10;;;;;;;11.44;54.09;99542.77;1755434;80;21150;-69
2021/12/17 11:09:49;;;;;;;2.65;1.98;;;;;;;11.45;54.06;99540.42;1755773;80;21017;-69
2021/12/17 11:12:38;;;;;;;2.87;2.17;;;;;;;11.45;54.06;99542.56;1756339;80;21057;-69
2021/12/17 11:15:18;;;;;;;3.02;2.15;;;;;;;11.45;54.06;99546.56;1769044;80;21029;-69
2021/12/17 11:17:56;;;;;;;3.62;2.35;;;;;;;11.44;54.06;99550.23;1755498;80;21045;-68
2021/12/17 11:20:28;;;;;;;3.02;2.02;;;;;;;11.44;54.04;99537.45;1755101;80;21971;-69
2021/12/17 11:22:56;;;;;;;3.00;2.20;;;;;;;11.43;54.04;99545.91;1762696;80;21490;-69
2021/12/17 11:25:23;;;;;;;3.25;1.80;;;;;;;11.44;54.06;99539.59;1757465;80;21024;-70
2021/12/17 11:27:52;;;;;;;2.30;1.90;;;;;;;11.44;54.03;99537.45;1776635;80;21029;-68
2021/12/17 11:30:24;;;;;;;2.15;1.90;;;;;;;11.44;54.03;99542.27;1770023;80;22108;-70
2021/12/17 11:32:51;;;;;;;2.10;1.75;;;;;;;11.44;54.00;99542.27;1776606;80;21742;-69
2021/12/17 11:35:20;;;;;;;2.92;1.90;;;;;;;11.44;54.01;99542.27;1756465;80;21042;-68
2021/12/17 11:37:47;;;;;;;2.67;2.10;;;;;;;11.45;54.00;99537.76;1771061;79;21212;-69
2021/12/17 11:40:25;;;;;;;2.72;2.02;;;;;;;11.44;53.99;99536.13;1769371;79;21044;-69
2021/12/17 11:43:37;;;;;;;2.33;1.77;;;;;;;11.43;53.99;99543.25;1763550;80;21072;-69
2021/12/17 11:46:09;;;;;;;2.50;2.20;;;;;;;11.43;53.97;99549.90;1777006;79;21880;-70
2021/12/17 11:48:35;;;;;;;2.55;2.00;;;;;;;11.41;53.98;99545.27;1774706;80;21648;-70
2021/12/17 11:51:12;;;;;;;2.83;2.10;;;;;;;11.40;54.02;99549.77;1782935;80;21013;-69
2021/12/17 11:54:04;;;;;;;2.10;1.90;;;;;;;11.41;54.02;99555.91;1780895;80;21682;-71
2021/12/17 11:56:54;;;;;;;3.20;2.00;;;;;;;11.40;54.02;99556.41;1773688;80;21498;-69
2021/12/17 11:59:32;;;;;;;2.58;1.72;;;;;;;11.39;54.03;99553.41;1762220;79;21220;-68
2021/12/17 12:02:22;;;;;;;2.67;2.20;;;;;;;11.38;54.04;99561.59;1760143;80;21009;-68
2021/12/17 12:05:01;;;;;;;2.92;2.08;;;;;;;11.37;54.06;99555.94;1756352;80;21057;-70
2021/12/17 12:07:33;;;;;;;2.80;1.82;;;;;;;11.36;54.07;99558.29;1755303;80;21085;-70
2021/12/17 12:10:13;;;;;;;2.58;1.85;;;;;;;11.34;54.08;99552.33;1756772;80;26727;-69
2021/12/17 12:12:49;;;;;;;2.10;1.82;;;;;;;11.35;54.10;99549.97;1760448;80;21224;-69
2021/12/17 12:15:27;;;;;;;4.03;2.10;;;;;;;11.34;54.11;99550.48;1755220;80;21033;-68
2021/12/17 12:18:03;;;;;;;2.02;1.90;;;;;;;11.34;54.11;99561.13;1759647;80;21021;-68
2021/12/17 12:20:51;;;;;;;3.60;2.27;;;;;;;11.33;54.12;99555.46;1763121;80;21084;-68
2021/12/17 12:23:38;;;;;;;2.12;1.80;;;;;;;11.33;54.11;99557.30;1757155;80;21057;-68
2021/12/17 12:26:13;;;;;;;2.20;1.95;;;;;;;11.32;54.13;99561.80;1765038;80;21220;-68
2021/12/17 12:28:56;;;;;;;2.08;1.80;;;;;;;11.31;54.14;99561.46;1755364;80;21112;-67
2021/12/17 12:31:32;;;;;;;2.35;1.70;;;;;;;11.31;54.17;99560.64;1743746;80;21057;-68
2021/12/17 12:34:06;;;;;;;2.47;2.20;;;;;;;11.30;54.14;99556.31;1756703;80;21022;-68
2021/12/17 12:37:08;;;;;;;2.30;1.90;;;;;;;11.30;54.15;99556.31;1756569;80;21006;-67
2021/12/17 12:39:47;;;;;;;2.00;1.72;;;;;;;11.30;54.15;99555.84;1764602;80;21148;-69
2021/12/17 12:42:27;;;;;;;2.42;2.00;;;;;;;11.29;54.15;99562.14;1765773;79;21544;-67
2021/12/17 12:45:08;;;;;;;2.55;2.22;;;;;;;11.30;54.14;99560.30;1785493;79;21025;-68
2021/12/17 12:47:40;;;;;;;2.40;2.02;;;;;;;11.30;54.14;99558.97;1761212;79;20993;-68
2021/12/17 12:50:14;;;;;;;2.27;2.00;;;;;;;11.29;54.13;99562.14;1772784;80;21561;-66
2021/12/17 12:52:54;;;;;;;2.83;2.30;;;;;;;11.30;54.15;99554.50;1777942;80;21148;-67
2021/12/17 12:55:34;;;;;;;2.80;2.30;;;;;;;11.29;54.14;99560.81;1759256;80;21033;-66
2021/12/17 12:58:11;;;;;;;2.15;1.80;;;;;;;11.30;54.11;99566.95;1755578;80;21037;-67
2021/12/17 13:00:50;;;;;;;2.52;2.05;;;;;;;11.29;54.13;99567.97;1756300;80;21116;-67
2021/12/17 13:03:21;;;;;;;2.12;1.72;;;;;;;11.29;54.12;99571.96;1755644;79;21066;-68
2021/12/17 13:05:49;;;;;;;2.12;1.92;;;;;;;11.30;54.13;99578.92;1755711;80;21082;-66
2021/12/17 13:08:19;;;;;;;2.95;2.62;;;;;;;11.30;54.13;99578.92;1774731;80;21085;-66
2021/12/17 13:10:55;;;;;;;2.70;1.85;;;;;;;11.30;54.12;99582.42;1776440;80;21053;-69
2021/12/17 13:16:08;;;;;;;2.77;2.15;;;;;;;11.30;54.08;99576.26;1764972;80;21041;-69
2021/12/17 13:24:09;;;;;;;3.10;2.02;;;;;;;11.28;54.11;99585.77;1786371;80;21518;-70
2021/12/17 13:26:34;;;;;;;2.45;1.87;;;;;;;11.28;54.12;99591.56;1786360;80;21010;-70
2021/12/17 13:29:10;;;;;;;2.27;1.95;;;;;;;11.28;54.12;99590.23;1778255;80;21092;-71
2021/12/17 13:31:49;;;;;;;2.70;2.37;;;;;;;11.27;54.12;99589.42;1759173;81;21771;-68
2021/12/17 13:34:36;;;;;;;2.20;1.98;;;;;;;11.27;54.12;99589.42;1770631;80;20996;-69
2021/12/17 13:37:24;;;;;;;2.83;2.20;;;;;;;11.27;54.09;99597.91;1773308;81;21228;-70
2021/12/17 13:40:05;;;;;;;2.20;2.00;;;;;;;11.13;54.10;99568.41;1792992;80;22135;-69
2021/12/17 13:42:36;;;;;;;2.17;1.98;;;;;;;11.26;54.13;99592.24;1790053;80;21528;-69
2021/12/17 13:45:07;;;;;;;3.33;2.37;;;;;;;11.25;54.13;99591.94;1789831;80;21112;-69
2021/12/17 13:47:38;;;;;;;2.33;2.05;;;;;;;11.24;54.13;99587.09;1763534;80;21005;-69
2021/12/17 13:50:21;;;;;;;2.77;2.15;;;;;;;11.24;54.16;99578.30;1761323;80;21341;-69
2021/12/17 13:53:03;;;;;;;3.15;2.33;;;;;;;11.24;54.13;99587.09;1807133;79;21044;-69
2021/12/17 13:55:39;;;;;;;3.02;2.33;;;;;;;11.24;54.15;99591.09;1786880;80;21552;-70
2021/12/17 13:58:08;;;;;;;2.22;1.85;;;;;;;11.21;54.14;99588.80;1786929;80;21072;-70
2021/12/17 14:00:44;;;;;;;2.17;1.98;;;;;;;11.21;54.16;99587.47;1772274;80;20993;-70
2021/12/17 14:03:14;;;;;;;3.00;2.22;;;;;;;11.20;54.17;99590.63;1779508;80;21500;-70
2021/12/17 14:05:45;;;;;;;3.35;2.40;;;;;;;11.20;54.15;99581.33;1729953;83;21556;-69
2021/12/17 14:08:15;;;;;;;2.55;2.12;;;;;;;11.21;54.17;99592.78;1762374;80;21036;-69
2021/12/17 14:10:41;;;;;;;3.37;2.55;;;;;;;11.20;54.17;99586.65;1761528;81;21148;-70
2021/12/17 14:13:21;;;;;;;2.60;2.08;;;;;;;11.20;54.17;99591.97;1761385;81;21279;-69
2021/12/17 14:15:48;;;;;;;2.33;1.98;;;;;;;11.20;54.15;99593.30;1729917;83;21505;-70
2021/12/17 14:18:20;;;;;;;2.35;2.15;;;;;;;11.20;54.14;99599.09;1734416;80;21052;-70
2021/12/17 14:20:52;;;;;;;2.98;2.45;;;;;;;11.20;54.14;99596.44;1781624;78;21021;-71
2021/12/17 14:23:22;;;;;;;2.55;2.15;;;;;;;11.20;54.12;99592.45;1773545;79;21162;-70
2021/12/17 14:25:55;;;;;;;2.87;2.10;;;;;;;11.19;54.12;99587.64;1787824;80;20992;-70
2021/12/17 14:28:30;;;;;;;2.52;2.20;;;;;;;11.20;54.12;99592.45;1758598;81;21025;-69
2021/12/17 14:31:09;;;;;;;3.75;2.40;;;;;;;11.19;54.12;99593.47;1717517;80;21462;-70
2021/12/17 14:33:45;;;;;;;4.08;2.40;;;;;;;11.18;54.13;99597.97;1764723;81;21549;-72
2021/12/17 14:36:15;;;;;;;2.83;2.35;;;;;;;11.18;54.10;99603.76;1764199;80;21215;-70
2021/12/17 14:38:48;;;;;;;3.37;2.42;;;;;;;11.17;54.13;99602.94;1744193;82;21037;-69
2021/12/17 14:41:19;;;;;;;2.58;2.35;;;;;;;11.17;54.12;99605.59;1747729;82;21034;-69
2021/12/17 14:43:52;;;;;;;3.77;2.20;;;;;;;11.17;54.12;99604.27;1749113;80;21022;-70
2021/12/17 14:46:31;;;;;;;2.67;2.10;;;;;;;11.17;54.12;99609.59;1747463;82;21089;-68